createdAt,value
2023-01-04T00:00:52.792Z,1.27
2023-01-04T00:03:19.371Z,1.17
2023-01-04T00:05:45.927Z,1.23
2023-01-04T00:08:12.387Z,1.27
2023-01-04T00:10:39.042Z,1.48
2023-01-04T00:13:05.654Z,1.10
2023-01-04T00:15:32.197Z,0.80
2023-01-04T00:17:58.734Z,1.40
2023-01-04T00:20:25.145Z,1.00
2023-01-04T00:22:51.576Z,1.40
2023-01-04T00:25:18.158Z,0.90
2023-01-04T00:27:44.634Z,1.20
2023-01-04T00:30:11.537Z,1.15
2023-01-04T00:32:37.890Z,1.63
2023-01-04T00:35:04.595Z,0.93
2023-01-04T00:37:31.439Z,1.30
2023-01-04T00:39:57.902Z,0.80
2023-01-04T00:42:24.367Z,1.25
2023-01-04T00:44:50.803Z,1.17
2023-01-04T00:47:17.287Z,1.02
2023-01-04T00:49:43.718Z,1.13
2023-01-04T00:52:10.234Z,1.35
2023-01-04T00:54:36.701Z,1.10
2023-01-04T00:57:05.197Z,1.10
2023-01-04T00:59:31.601Z,1.25
2023-01-04T01:01:58.199Z,0.82
2023-01-04T01:04:24.877Z,1.08
2023-01-04T01:06:52.371Z,1.15
2023-01-04T01:09:22.585Z,1.45
2023-01-04T01:11:49.216Z,0.80
2023-01-04T01:14:21.682Z,1.20
2023-01-04T01:17:03.951Z,1.10
2023-01-04T01:19:30.535Z,1.15
2023-01-04T01:21:58.319Z,1.52
2023-01-04T01:24:24.978Z,1.50
2023-01-04T01:26:51.413Z,1.73
2023-01-04T01:29:17.897Z,1.20
2023-01-04T01:31:44.704Z,0.85
2023-01-04T01:34:11.245Z,1.17
2023-01-04T01:36:37.824Z,0.85
2023-01-04T01:39:05.693Z,1.13
2023-01-04T01:41:34.287Z,1.00
2023-01-04T01:44:41.727Z,0.90
2023-01-04T01:47:38.344Z,0.90
2023-01-04T01:50:10.181Z,0.70
2023-01-04T01:52:38.957Z,0.80
2023-01-04T01:55:08.641Z,0.80
2023-01-04T01:57:38.204Z,0.73
2023-01-04T02:00:09.846Z,0.93
2023-01-04T02:02:37.864Z,1.02
2023-01-04T02:05:04.793Z,0.82
2023-01-04T02:07:31.403Z,0.98
2023-01-04T02:09:58.852Z,0.90
2023-01-04T02:12:25.815Z,0.80
2023-01-04T02:14:52.325Z,0.80
2023-01-04T02:17:40.574Z,0.82
2023-01-04T02:20:36.201Z,0.73
2023-01-04T02:23:37.922Z,1.00
2023-01-04T02:26:18.777Z,0.80
2023-01-04T02:29:23.262Z,0.75
2023-01-04T02:31:53.656Z,1.00
2023-01-04T02:34:45.910Z,0.60
2023-01-04T02:37:43.395Z,0.60
2023-01-04T02:43:16.312Z,0.70
2023-01-04T02:45:51.590Z,0.68
2023-01-04T02:48:36.615Z,0.60
2023-01-04T02:51:03.086Z,0.70
2023-01-04T02:53:37.866Z,0.57
2023-01-04T02:56:51.570Z,0.80
2023-01-04T02:59:38.911Z,0.50
2023-01-04T03:02:33.289Z,0.55
2023-01-04T03:05:33.848Z,0.55
2023-01-04T03:08:16.554Z,0.47
2023-01-04T03:10:52.949Z,0.47
2023-01-04T03:13:42.564Z,0.40
2023-01-04T03:16:20.608Z,0.60
2023-01-04T03:18:51.410Z,0.50
2023-01-04T03:21:20.748Z,0.50
2023-01-04T03:24:08.401Z,0.50
2023-01-04T03:27:00.279Z,0.63
2023-01-04T03:29:58.293Z,0.70
2023-01-04T03:33:24.814Z,0.63
2023-01-04T03:36:12.053Z,0.40
2023-01-04T03:39:04.437Z,0.40
2023-01-04T03:41:58.503Z,0.40
2023-01-04T03:44:49.831Z,0.40
2023-01-04T03:47:44.198Z,0.38
2023-01-04T03:50:21.870Z,0.38
2023-01-04T03:52:51.188Z,0.38
2023-01-04T03:55:18.627Z,0.55
2023-01-04T03:57:46.426Z,0.45
2023-01-04T04:00:16.734Z,0.30
2023-01-04T04:02:45.891Z,0.25
2023-01-04T04:05:36.542Z,0.30
2023-01-04T04:08:21.751Z,0.30
2023-01-04T04:10:48.266Z,0.40
2023-01-04T04:13:14.726Z,0.28
2023-01-04T04:15:41.435Z,0.20
2023-01-04T04:18:08.053Z,0.55
2023-01-04T04:20:35.202Z,0.40
2023-01-04T04:23:01.845Z,0.30
2023-01-04T04:25:28.411Z,0.30
2023-01-04T04:27:54.894Z,0.35
2023-01-04T04:30:21.530Z,0.25
2023-01-04T04:32:47.964Z,0.40
2023-01-04T04:35:14.542Z,0.43
2023-01-04T04:37:40.945Z,0.28
2023-01-04T04:40:27.983Z,0.28
2023-01-04T04:45:20.749Z,0.40
2023-01-04T04:47:47.077Z,0.30
2023-01-04T04:50:13.491Z,0.25
2023-01-04T04:52:41.591Z,0.20
2023-01-04T04:55:08.321Z,0.20
2023-01-04T04:57:34.791Z,0.30
2023-01-04T05:00:01.206Z,0.20
2023-01-04T05:02:27.778Z,0.30
2023-01-04T05:04:54.399Z,0.32
2023-01-04T05:07:20.751Z,0.20
2023-01-04T05:09:47.149Z,0.25
2023-01-04T05:12:32.243Z,0.32
2023-01-04T05:14:58.608Z,0.30
2023-01-04T05:17:24.960Z,0.35
2023-01-04T05:19:51.333Z,0.17
2023-01-04T05:22:17.706Z,0.30
2023-01-04T05:24:44.083Z,0.30
2023-01-04T05:27:10.451Z,0.40
2023-01-04T05:29:55.676Z,0.30
2023-01-04T05:32:22.046Z,0.30
2023-01-04T05:34:48.411Z,0.32
2023-01-04T05:37:14.835Z,0.20
2023-01-04T05:39:41.811Z,0.35
2023-01-04T05:42:26.578Z,0.35
2023-01-04T05:44:54.196Z,0.30
2023-01-04T05:47:21.470Z,0.45
2023-01-04T05:49:48.541Z,0.40
2023-01-04T05:52:15.153Z,0.40
2023-01-04T05:54:41.597Z,0.28
2023-01-04T05:57:08.321Z,0.20
2023-01-04T05:59:41.851Z,0.40
2023-01-04T06:02:18.723Z,0.20
2023-01-04T06:04:45.326Z,0.30
2023-01-04T06:07:11.933Z,0.30
2023-01-04T06:09:38.423Z,0.10
2023-01-04T06:12:05.102Z,0.20
2023-01-04T06:14:31.634Z,0.28
2023-01-04T06:16:59.057Z,0.17
2023-01-04T06:19:25.819Z,0.20
2023-01-04T06:21:52.392Z,0.30
2023-01-04T06:24:19.185Z,0.20
2023-01-04T06:26:46.225Z,0.50
2023-01-04T06:29:13.304Z,0.40
2023-01-04T06:31:39.750Z,0.20
2023-01-04T06:34:06.182Z,0.30
2023-01-04T06:36:32.684Z,0.20
2023-01-04T06:39:00.240Z,0.30
2023-01-04T06:41:26.917Z,0.20
2023-01-04T06:43:53.470Z,0.25
2023-01-04T06:46:20.509Z,0.30
2023-01-04T06:48:47.075Z,0.40
2023-01-04T06:51:13.477Z,0.30
2023-01-04T06:53:40.123Z,0.30
2023-01-04T06:56:08.989Z,0.32
2023-01-04T06:58:38.745Z,0.30
2023-01-04T07:01:05.764Z,0.30
2023-01-04T07:03:32.699Z,0.40
2023-01-04T07:05:59.227Z,0.28
2023-01-04T07:08:25.922Z,0.40
2023-01-04T07:10:52.337Z,0.25
2023-01-04T07:13:19.200Z,0.30
2023-01-04T07:15:45.665Z,0.40
2023-01-04T07:18:12.518Z,0.20
2023-01-04T07:20:39.349Z,0.30
2023-01-04T07:23:07.265Z,0.30
2023-01-04T07:25:34.121Z,0.30
2023-01-04T07:28:00.680Z,0.38
2023-01-04T07:30:27.119Z,0.22
2023-01-04T07:32:54.877Z,0.40
2023-01-04T07:35:22.534Z,0.30
2023-01-04T07:37:55.633Z,0.40
2023-01-04T07:40:24.735Z,0.63
2023-01-04T07:42:56.991Z,0.38
2023-01-04T07:45:23.963Z,0.17
2023-01-04T07:47:50.404Z,0.30
2023-01-04T07:50:16.904Z,0.45
2023-01-04T07:52:43.328Z,0.43
2023-01-04T07:55:09.972Z,0.60
2023-01-04T07:57:36.409Z,0.32
2023-01-04T08:00:04.088Z,0.40
2023-01-04T08:02:30.601Z,0.40
2023-01-04T08:04:57.168Z,0.30
2023-01-04T08:07:23.917Z,0.20
2023-01-04T08:09:50.389Z,0.40
2023-01-04T08:12:16.774Z,0.40
2023-01-04T08:14:43.212Z,0.30
2023-01-04T08:17:09.955Z,0.30
2023-01-04T08:19:36.377Z,0.30
2023-01-04T08:22:03.052Z,0.40
2023-01-04T08:24:29.469Z,0.55
2023-01-04T08:26:56.252Z,0.40
2023-01-04T08:29:22.826Z,0.50
2023-01-04T08:31:49.484Z,0.50
2023-01-04T08:34:16.404Z,0.47
2023-01-04T08:36:50.920Z,0.52
2023-01-04T08:39:17.551Z,0.50
2023-01-04T08:41:59.476Z,0.47
2023-01-04T08:44:27.965Z,0.60
2023-01-04T08:46:55.015Z,0.43
2023-01-04T08:49:22.754Z,0.35
2023-01-04T08:51:49.715Z,0.60
2023-01-04T08:54:16.365Z,0.47
2023-01-04T08:56:43.714Z,0.50
2023-01-04T08:59:11.555Z,0.47
2023-01-04T09:01:39.300Z,0.40
2023-01-04T09:04:06.549Z,0.50
2023-01-04T09:06:33.499Z,0.52
2023-01-04T09:09:00.124Z,0.50
2023-01-04T09:11:27.413Z,0.57
2023-01-04T09:14:06.737Z,0.52
2023-01-04T09:16:35.051Z,0.52
2023-01-04T09:19:01.570Z,0.57
2023-01-04T09:21:28.207Z,0.57
2023-01-04T09:23:57.214Z,0.50
2023-01-04T09:26:24.594Z,0.50
2023-01-04T09:28:53.056Z,0.40
2023-01-04T09:31:25.544Z,0.50
2023-01-04T09:39:05.657Z,0.30
2023-01-04T09:41:43.044Z,0.40
2023-01-04T09:44:09.367Z,0.50
2023-01-04T09:46:54.251Z,0.40
2023-01-04T09:49:37.903Z,0.75
2023-01-04T09:52:14.287Z,0.50
2023-01-04T09:57:18.649Z,0.50
2023-01-04T09:59:46.558Z,0.65
2023-01-04T10:02:18.982Z,0.63
2023-01-04T10:04:48.936Z,0.50
2023-01-04T10:07:27.481Z,0.52
2023-01-04T10:09:54.357Z,0.40
2023-01-04T10:12:23.496Z,0.50
2023-01-04T10:15:03.458Z,0.60
2023-01-04T10:23:46.117Z,0.40
2023-01-04T10:26:23.134Z,0.40
2023-01-04T10:29:17.557Z,0.50
2023-01-04T10:31:50.139Z,0.40
2023-01-04T10:34:22.556Z,0.50
2023-01-04T10:36:51.444Z,0.45
2023-01-04T10:39:26.961Z,0.40
2023-01-04T10:42:00.426Z,0.60
2023-01-04T10:44:38.785Z,0.50
2023-01-04T10:47:15.405Z,0.70
2023-01-04T10:49:46.889Z,0.70
2023-01-04T10:52:23.270Z,0.85
2023-01-04T10:57:39.091Z,0.50
2023-01-04T11:00:11.318Z,0.40
2023-01-04T11:02:47.040Z,0.70
2023-01-04T11:05:29.536Z,0.60
2023-01-04T11:08:03.205Z,0.88
2023-01-04T11:10:49.583Z,0.63
2023-01-04T11:13:16.140Z,0.70
2023-01-04T11:15:43.805Z,0.60
2023-01-04T11:18:13.876Z,0.57
2023-01-04T11:20:40.904Z,0.55
2023-01-04T11:23:20.583Z,0.52
2023-01-04T11:25:55.727Z,0.70
2023-01-04T11:28:41.417Z,0.50
2023-01-04T11:31:07.724Z,0.60
2023-01-04T11:33:57.823Z,0.82
2023-01-04T11:36:42.100Z,0.55
2023-01-04T11:39:26.369Z,1.05
2023-01-04T11:42:03.325Z,0.60
2023-01-04T11:44:32.222Z,0.40
2023-01-04T11:47:19.279Z,0.40
2023-01-04T11:49:45.775Z,0.40
2023-01-04T11:52:27.531Z,0.77
2023-01-04T11:54:54.171Z,0.60
2023-01-04T11:57:21.470Z,0.32
2023-01-04T12:00:13.669Z,0.70
2023-01-04T12:03:00.943Z,0.43
2023-01-04T12:05:32.611Z,0.55
2023-01-04T12:08:02.391Z,0.30
2023-01-04T12:10:29.220Z,0.60
2023-01-04T12:12:57.190Z,0.40
2023-01-04T12:16:01.568Z,0.30
2023-01-04T12:18:37.499Z,0.60
2023-01-04T12:21:04.258Z,0.20
2023-01-04T12:23:33.474Z,0.40
2023-01-04T12:26:01.246Z,0.40
2023-01-04T12:28:43.858Z,0.40
2023-01-04T12:31:20.144Z,0.75
2023-01-04T12:33:56.484Z,0.45
2023-01-04T12:36:38.191Z,0.35
2023-01-04T12:39:16.604Z,0.43
2023-01-04T12:42:01.381Z,0.50
2023-01-04T12:44:37.331Z,0.30
2023-01-04T12:47:39.661Z,0.50
2023-01-04T12:50:23.185Z,0.55
2023-01-04T12:53:28.824Z,0.55
2023-01-04T12:55:54.968Z,0.30
2023-01-04T12:58:42.387Z,0.50
2023-01-04T13:01:25.551Z,0.47
2023-01-04T13:04:02.535Z,0.43
2023-01-04T13:06:39.180Z,0.40
2023-01-04T13:09:15.944Z,0.30
2023-01-04T13:12:04.693Z,0.50
2023-01-04T13:14:39.153Z,0.50
2023-01-04T13:17:13.259Z,0.65
2023-01-04T13:19:40.700Z,0.50
2023-01-04T13:22:17.298Z,0.52
2023-01-04T13:24:45.010Z,0.50
2023-01-04T13:27:23.396Z,0.50
2023-01-04T13:29:51.419Z,0.57
2023-01-04T13:32:30.487Z,0.50
2023-01-04T13:35:00.691Z,0.45
2023-01-04T13:37:36.674Z,0.40
2023-01-04T13:40:21.576Z,0.40
2023-01-04T13:42:51.951Z,0.40
2023-01-04T13:45:29.930Z,0.30
2023-01-04T13:47:59.770Z,0.38
2023-01-04T13:50:29.179Z,0.55
2023-01-04T13:53:06.360Z,0.43
2023-01-04T13:55:37.075Z,0.60
2023-01-04T13:58:16.953Z,0.50
2023-01-04T14:00:53.264Z,0.30
2023-01-04T14:03:26.931Z,0.43
2023-01-04T14:05:59.867Z,0.88
2023-01-04T14:08:40.337Z,0.30
2023-01-04T14:11:40.222Z,0.32
2023-01-04T14:14:37.166Z,0.30
2023-01-04T14:17:14.786Z,0.40
2023-01-04T14:19:45.969Z,0.40
2023-01-04T14:22:49.313Z,0.30
2023-01-04T14:25:34.200Z,0.40
2023-01-04T14:28:19.046Z,0.32
2023-01-04T14:30:47.753Z,0.30
2023-01-04T14:33:26.662Z,0.40
2023-01-04T14:36:14.840Z,0.22
2023-01-04T14:38:49.725Z,0.30
2023-01-04T14:41:35.639Z,0.40
2023-01-04T14:44:24.116Z,0.30
2023-01-04T14:47:03.924Z,0.35
2023-01-04T14:49:31.604Z,0.35
2023-01-04T14:52:00.851Z,0.50
2023-01-04T14:54:29.454Z,0.60
2023-01-04T14:56:59.426Z,0.60
2023-01-04T14:59:26.808Z,0.40
2023-01-04T15:01:55.450Z,0.60
2023-01-04T15:04:22.306Z,0.30
2023-01-04T15:06:54.825Z,0.32
2023-01-04T15:09:21.730Z,0.50
2023-01-04T15:11:48.321Z,0.60
2023-01-04T15:14:14.865Z,0.45
2023-01-04T15:16:41.528Z,0.40
2023-01-04T15:19:08.007Z,0.40
2023-01-04T15:21:40.665Z,0.20
2023-01-04T15:24:09.524Z,0.40
2023-01-04T15:26:35.961Z,0.40
2023-01-04T15:29:02.643Z,0.47
2023-01-04T15:31:34.981Z,0.50
2023-01-04T15:34:04.907Z,0.45
2023-01-04T15:36:31.330Z,0.57
2023-01-04T15:38:58.101Z,0.40
2023-01-04T15:41:43.384Z,0.40
2023-01-04T15:44:11.353Z,0.50
2023-01-04T15:46:40.286Z,0.47
2023-01-04T15:49:09.438Z,0.40
2023-01-04T15:51:38.348Z,0.60
2023-01-04T15:54:04.991Z,0.40
2023-01-04T15:56:31.341Z,0.90
2023-01-04T15:58:57.826Z,0.32
2023-01-04T16:01:24.380Z,0.25
2023-01-04T16:03:54.028Z,0.52
2023-01-04T16:06:22.064Z,0.32
2023-01-04T16:08:50.423Z,0.40
2023-01-04T16:11:20.525Z,0.32
2023-01-04T16:13:48.402Z,0.60
2023-01-04T16:16:15.703Z,0.50
2023-01-04T16:18:50.638Z,0.60
2023-01-04T16:21:21.521Z,0.30
2023-01-04T16:23:54.884Z,0.38
2023-01-04T16:26:25.224Z,0.57
2023-01-04T16:28:53.727Z,0.70
2023-01-04T16:31:24.478Z,0.40
2023-01-04T16:33:54.325Z,0.40
2023-01-04T16:36:23.706Z,0.60
2023-01-04T16:38:50.067Z,0.50
2023-01-04T16:41:20.773Z,0.68
2023-01-04T16:43:50.430Z,0.52
2023-01-04T16:46:20.640Z,0.90
2023-01-04T16:48:53.075Z,0.73
2023-01-04T16:51:20.255Z,0.70
2023-01-04T16:53:47.044Z,0.70
2023-01-04T16:56:15.568Z,0.93
2023-01-04T16:58:45.335Z,0.70
2023-01-04T17:01:17.272Z,0.98
2023-01-04T17:03:46.285Z,0.85
2023-01-04T17:06:14.242Z,0.93
2023-01-04T17:08:41.698Z,0.80
2023-01-04T17:14:00.637Z,0.70
2023-01-04T17:16:32.757Z,0.90
2023-01-04T17:19:01.237Z,1.13
2023-01-04T17:21:34.252Z,1.30
2023-01-04T17:24:01.682Z,1.23
2023-01-04T17:26:30.542Z,1.20
2023-01-04T17:28:58.846Z,1.50
2023-01-04T17:31:28.976Z,1.63
2023-01-04T17:33:55.549Z,1.63
2023-01-04T17:36:22.628Z,1.35
2023-01-04T17:38:49.605Z,1.65
2023-01-04T17:41:26.851Z,2.03
2023-01-04T17:44:00.266Z,1.65
2023-01-04T17:46:29.229Z,2.22
2023-01-04T17:49:21.780Z,2.05
2023-01-04T17:51:45.960Z,1.90
2023-01-04T17:54:13.924Z,2.30
2023-01-04T17:56:40.337Z,1.67
2023-01-04T17:59:06.902Z,1.67
2023-01-04T18:01:35.190Z,2.65
2023-01-04T18:04:02.533Z,2.58
2023-01-04T18:06:34.529Z,2.10
2023-01-04T18:09:02.372Z,2.13
2023-01-04T18:11:29.228Z,3.17
2023-01-04T18:13:55.810Z,2.63
2023-01-04T18:16:27.164Z,3.65
2023-01-04T18:18:55.875Z,2.92
2023-01-04T18:21:28.617Z,3.05
2023-01-04T18:29:31.756Z,3.30
2023-01-04T18:31:58.383Z,3.13
2023-01-04T18:34:26.404Z,3.67
2023-01-04T18:36:53.061Z,3.35
2023-01-04T18:39:19.461Z,2.78
2023-01-04T18:41:46.224Z,3.42
2023-01-04T18:44:32.001Z,2.70
2023-01-04T18:46:59.348Z,3.28
2023-01-04T18:49:25.770Z,3.08
2023-01-04T18:51:52.231Z,3.00
2023-01-04T18:54:20.742Z,3.10
2023-01-04T18:56:47.764Z,3.40
2023-01-04T18:59:17.210Z,3.88
2023-01-04T19:01:45.381Z,2.92
2023-01-04T19:04:12.735Z,3.15
2023-01-04T19:06:40.384Z,3.30
2023-01-04T19:09:07.621Z,3.00
2023-01-04T19:11:35.043Z,3.35
2023-01-04T19:14:02.654Z,3.80
2023-01-04T19:16:32.264Z,3.30
2023-01-04T19:19:00.235Z,3.13
2023-01-04T19:21:27.836Z,3.40
2023-01-04T19:23:54.683Z,3.05
2023-01-04T19:26:22.324Z,3.75
2023-01-04T19:28:51.293Z,2.92
2023-01-04T19:31:20.879Z,2.83
2023-01-04T19:33:47.752Z,3.25
2023-01-04T19:36:16.404Z,2.80
2023-01-04T19:38:42.843Z,2.83
2023-01-04T19:41:16.436Z,2.28
2023-01-04T19:43:43.013Z,3.05
2023-01-04T19:46:11.789Z,2.60
2023-01-04T19:48:38.384Z,3.03
2023-01-04T19:51:16.327Z,3.20
2023-01-04T19:53:45.487Z,2.85
2023-01-04T19:56:14.215Z,2.97
2023-01-04T19:58:40.644Z,3.28
2023-01-04T20:01:07.512Z,3.67
2023-01-04T20:03:34.089Z,3.63
2023-01-04T20:06:03.419Z,3.35
2023-01-04T20:08:29.864Z,3.70
2023-01-04T20:10:59.006Z,2.97
2023-01-04T20:13:26.473Z,3.80
2023-01-04T20:15:52.934Z,3.35
2023-01-04T20:18:20.482Z,2.67
2023-01-04T20:20:47.643Z,3.83
2023-01-04T20:23:15.262Z,4.18
2023-01-04T20:25:43.673Z,3.60
2023-01-04T20:28:10.528Z,3.42
2023-01-04T20:30:37.941Z,4.13
2023-01-04T20:33:06.362Z,3.13
2023-01-04T20:35:33.260Z,3.78
2023-01-04T20:37:59.708Z,2.85
2023-01-04T20:40:27.417Z,3.92
2023-01-04T20:43:13.060Z,3.40
2023-01-04T20:45:43.975Z,3.08
2023-01-04T20:48:10.859Z,3.53
2023-01-04T20:50:37.471Z,2.85
2023-01-04T20:53:04.414Z,3.03
2023-01-04T20:55:30.808Z,2.83
2023-01-04T20:57:57.519Z,2.95
2023-01-04T21:00:23.986Z,3.40
2023-01-04T21:02:51.179Z,3.55
2023-01-04T21:05:17.834Z,3.08
2023-01-04T21:07:44.339Z,3.40
2023-01-04T21:10:10.694Z,3.20
2023-01-04T21:12:38.360Z,3.83
2023-01-04T21:15:05.028Z,3.65
2023-01-04T21:17:31.593Z,2.85
2023-01-04T21:19:57.956Z,2.90
2023-01-04T21:22:25.807Z,2.55
2023-01-04T21:24:52.255Z,3.78
2023-01-04T21:27:18.730Z,3.17
2023-01-04T21:29:45.481Z,2.92
2023-01-04T21:32:11.951Z,3.67
2023-01-04T21:34:38.530Z,3.58
2023-01-04T21:37:05.043Z,3.10
2023-01-04T21:39:31.574Z,3.75
2023-01-04T21:41:58.044Z,2.80
2023-01-04T21:44:24.663Z,2.85
2023-01-04T21:46:51.139Z,2.85
2023-01-04T21:49:17.657Z,3.78
2023-01-04T21:51:44.147Z,2.80
2023-01-04T21:54:10.766Z,3.33
2023-01-04T21:56:37.226Z,3.22
2023-01-04T21:59:03.753Z,3.10
2023-01-04T22:01:34.938Z,2.65
2023-01-04T22:04:02.171Z,3.10
2023-01-04T22:06:29.232Z,2.65
2023-01-04T22:08:55.870Z,2.55
2023-01-04T22:11:22.237Z,3.03
2023-01-04T22:13:50.302Z,3.03
2023-01-04T22:16:17.659Z,2.88
2023-01-04T22:18:48.615Z,3.17
2023-01-04T22:21:17.511Z,2.67
2023-01-04T22:23:43.980Z,3.80
2023-01-04T22:26:10.524Z,2.58
2023-01-04T22:28:37.525Z,3.03
2023-01-04T22:31:10.747Z,2.75
2023-01-04T22:33:38.480Z,2.75
2023-01-04T22:36:19.152Z,2.25
2023-01-04T22:38:48.478Z,2.88
2023-01-04T22:41:18.841Z,2.35
2023-01-04T22:43:45.559Z,2.63
2023-01-04T22:46:14.650Z,3.25
2023-01-04T22:48:41.241Z,2.92
2023-01-04T22:51:08.848Z,2.50
2023-01-04T22:53:35.925Z,2.53
2023-01-04T22:56:19.411Z,2.60
2023-01-04T22:58:52.975Z,2.50
2023-01-04T23:01:21.241Z,2.50
2023-01-04T23:03:48.558Z,3.13
2023-01-04T23:06:15.525Z,2.50
2023-01-04T23:08:42.068Z,2.85
2023-01-04T23:11:12.762Z,2.38
2023-01-04T23:13:39.686Z,2.80
2023-01-04T23:16:11.414Z,2.47
2023-01-04T23:18:38.540Z,2.85
2023-01-04T23:21:05.597Z,2.70
2023-01-04T23:23:34.846Z,3.42
2023-01-04T23:26:12.048Z,2.85
2023-01-04T23:28:38.509Z,2.40
2023-01-04T23:31:08.958Z,2.92
2023-01-04T23:33:36.711Z,2.45
2023-01-04T23:36:12.226Z,2.42
2023-01-04T23:38:40.881Z,3.03
2023-01-04T23:41:07.867Z,2.60
2023-01-04T23:43:37.951Z,2.70
2023-01-04T23:46:16.485Z,2.78
2023-01-04T23:48:43.524Z,2.88
2023-01-04T23:51:12.121Z,2.40
2023-01-04T23:53:38.501Z,3.17
2023-01-04T23:56:07.684Z,2.95
2023-01-04T23:58:34.580Z,2.85
